createdAt,value
2018-12-24T00:00:34.154Z,13.79
2018-12-24T00:03:22.233Z,13.36
2018-12-24T00:05:57.882Z,12.87
2018-12-24T00:08:30.802Z,13.34
2018-12-24T00:11:08.438Z,13.62
2018-12-24T00:13:43.178Z,13.48
2018-12-24T00:16:16.471Z,13.18
2018-12-24T00:18:50.409Z,13.52
2018-12-24T00:21:23.142Z,13.43
2018-12-24T00:24:00.767Z,13.71
2018-12-24T00:26:32.541Z,13.53
2018-12-24T00:29:07.577Z,13.30
2018-12-24T00:31:42.122Z,13.30
2018-12-24T00:34:15.400Z,13.23
2018-12-24T00:36:53.212Z,13.08
2018-12-24T00:39:26.272Z,13.22
2018-12-24T00:42:01.491Z,12.43
2018-12-24T00:44:40.032Z,12.32
2018-12-24T00:47:15.479Z,12.13
2018-12-24T00:49:48.573Z,12.37
2018-12-24T00:52:26.079Z,12.22
2018-12-24T00:55:00.995Z,12.32
2018-12-24T00:57:36.356Z,12.52
2018-12-24T01:00:08.900Z,12.21
2018-12-24T01:02:41.164Z,12.31
2018-12-24T01:05:13.690Z,12.51
2018-12-24T01:07:49.867Z,12.52
2018-12-24T01:10:27.851Z,12.54
2018-12-24T01:13:04.597Z,12.73
2018-12-24T01:15:44.652Z,13.04
2018-12-24T01:18:16.557Z,12.65
2018-12-24T01:20:50.986Z,12.58
2018-12-24T01:23:28.547Z,12.71
2018-12-24T01:26:00.703Z,12.78
2018-12-24T01:28:38.029Z,12.61
2018-12-24T01:31:15.193Z,12.82
2018-12-24T01:33:48.010Z,12.61
2018-12-24T01:36:20.502Z,13.01
2018-12-24T01:38:55.287Z,12.73
2018-12-24T01:41:30.350Z,12.53
2018-12-24T01:44:13.511Z,12.95
2018-12-24T01:46:48.114Z,13.08
2018-12-24T01:49:24.667Z,13.30
2018-12-24T01:51:59.194Z,13.45
2018-12-24T01:54:32.367Z,12.75
2018-12-24T01:57:03.938Z,13.06
2018-12-24T01:59:38.830Z,13.12
2018-12-24T02:02:13.075Z,13.34
2018-12-24T02:04:54.974Z,13.01
2018-12-24T02:07:31.461Z,12.58
2018-12-24T02:10:10.187Z,12.81
2018-12-24T02:12:44.302Z,12.88
2018-12-24T02:15:21.700Z,13.19
2018-12-24T02:18:00.203Z,13.17
2018-12-24T02:20:40.524Z,13.21
2018-12-24T02:23:15.092Z,13.15
2018-12-24T02:25:49.964Z,12.92
2018-12-24T02:28:26.558Z,13.23
2018-12-24T02:30:58.532Z,13.36
2018-12-24T02:33:34.914Z,13.27
2018-12-24T02:36:11.715Z,12.93
2018-12-24T02:38:47.113Z,12.69
2018-12-24T02:41:24.528Z,12.87
2018-12-24T02:44:06.142Z,12.48
2018-12-24T02:46:41.850Z,12.59
2018-12-24T02:49:15.686Z,12.79
2018-12-24T02:51:46.860Z,12.83
2018-12-24T02:57:21.402Z,12.73
2018-12-24T02:59:52.552Z,12.87
2018-12-24T03:02:26.046Z,13.06
2018-12-24T03:05:00.275Z,13.10
2018-12-24T03:07:32.430Z,12.93
2018-12-24T03:10:12.279Z,13.01
2018-12-24T03:12:48.090Z,13.03
2018-12-24T03:15:23.755Z,13.15
2018-12-24T03:17:59.130Z,12.61
2018-12-24T03:20:33.520Z,12.70
2018-12-24T03:23:08.661Z,13.10
2018-12-24T03:25:41.869Z,12.94
2018-12-24T03:28:22.560Z,12.40
2018-12-24T03:31:04.598Z,12.96
2018-12-24T03:33:39.185Z,12.89
2018-12-24T03:36:18.124Z,13.08
2018-12-24T03:38:52.088Z,12.83
2018-12-24T03:41:26.384Z,13.01
2018-12-24T03:44:00.972Z,13.28
2018-12-24T03:46:33.126Z,13.12
2018-12-24T03:49:11.465Z,13.25
2018-12-24T03:51:54.492Z,13.20
2018-12-24T03:54:30.983Z,13.16
2018-12-24T03:57:02.614Z,12.76
2018-12-24T03:59:36.800Z,12.73
2018-12-24T04:02:12.230Z,12.76
2018-12-24T04:04:44.808Z,12.38
2018-12-24T04:07:20.280Z,12.13
2018-12-24T04:09:53.271Z,12.77
2018-12-24T04:12:27.400Z,12.82
2018-12-24T04:15:01.031Z,12.90
2018-12-24T04:17:32.547Z,13.03
2018-12-24T04:20:07.274Z,12.21
2018-12-24T04:22:41.924Z,12.69
2018-12-24T04:25:15.318Z,12.05
2018-12-24T04:27:48.383Z,12.11
2018-12-24T04:30:23.228Z,12.70
2018-12-24T04:32:56.251Z,13.10
2018-12-24T04:35:32.152Z,12.53
2018-12-24T04:38:16.198Z,12.25
2018-12-24T04:40:48.083Z,12.59
2018-12-24T04:44:23.348Z,13.17
2018-12-24T04:46:54.860Z,13.14
2018-12-24T04:49:28.882Z,12.88
2018-12-24T04:52:02.902Z,12.66
2018-12-24T04:54:46.968Z,12.41
2018-12-24T04:57:26.045Z,12.78
2018-12-24T04:59:57.661Z,12.85
2018-12-24T05:02:29.936Z,12.98
2018-12-24T05:05:01.949Z,13.10
2018-12-24T05:07:35.588Z,13.18
2018-12-24T05:10:10.643Z,13.26
2018-12-24T05:12:53.119Z,13.16
2018-12-24T05:15:28.724Z,13.20
2018-12-24T05:18:02.188Z,13.13
2018-12-24T05:20:34.377Z,13.23
2018-12-24T05:23:06.994Z,13.19
2018-12-24T05:25:38.697Z,13.27
2018-12-24T05:28:11.128Z,13.43
2018-12-24T05:30:41.543Z,13.14
2018-12-24T05:33:18.166Z,12.90
2018-12-24T05:35:52.897Z,12.47
2018-12-24T05:38:24.516Z,12.78
2018-12-24T05:40:57.120Z,12.65
2018-12-24T05:43:28.962Z,12.96
2018-12-24T05:46:02.182Z,13.19
2018-12-24T05:48:34.256Z,13.30
2018-12-24T05:51:06.800Z,13.42
2018-12-24T05:53:38.304Z,13.19
2018-12-24T05:56:13.589Z,13.11
2018-12-24T05:58:47.504Z,13.45
2018-12-24T06:01:21.515Z,13.12
2018-12-24T06:03:52.904Z,13.20
2018-12-24T06:06:25.932Z,13.09
2018-12-24T06:08:59.747Z,13.27
2018-12-24T06:11:34.406Z,13.60
2018-12-24T06:14:09.304Z,13.29
2018-12-24T06:16:48.974Z,13.53
2018-12-24T06:19:20.949Z,13.54
2018-12-24T06:21:54.437Z,13.52
2018-12-24T06:24:29.083Z,13.79
2018-12-24T06:27:01.031Z,13.76
2018-12-24T06:29:35.117Z,13.26
2018-12-24T06:32:12.751Z,13.18
2018-12-24T06:34:59.714Z,13.35
2018-12-24T06:38:02.317Z,13.40
2018-12-24T06:40:36.024Z,13.72
2018-12-24T06:43:09.107Z,13.17
2018-12-24T06:45:41.995Z,13.58
2018-12-24T06:48:14.779Z,13.60
2018-12-24T06:50:46.650Z,13.65
2018-12-24T06:53:18.147Z,13.37
2018-12-24T06:55:49.039Z,12.96
2018-12-24T06:58:20.636Z,13.07
2018-12-24T07:00:51.637Z,13.38
2018-12-24T07:03:25.511Z,13.40
2018-12-24T07:05:58.845Z,13.39
2018-12-24T07:08:33.518Z,13.32
2018-12-24T07:11:10.725Z,13.23
2018-12-24T07:13:41.804Z,13.61
2018-12-24T07:16:13.222Z,13.79
2018-12-24T07:18:44.994Z,13.63
2018-12-24T07:21:17.129Z,13.83
2018-12-24T07:23:52.342Z,13.71
2018-12-24T07:26:26.123Z,13.77
2018-12-24T07:28:59.208Z,13.87
2018-12-24T07:31:31.633Z,13.95
2018-12-24T07:34:03.795Z,13.99
2018-12-24T07:36:36.066Z,13.86
2018-12-24T07:39:09.452Z,14.05
2018-12-24T07:41:42.783Z,13.94
2018-12-24T07:44:14.010Z,13.97
2018-12-24T07:46:56.422Z,14.02
2018-12-24T07:49:28.691Z,13.99
2018-12-24T07:52:02.602Z,13.98
2018-12-24T07:54:35.704Z,14.10
2018-12-24T07:57:07.350Z,14.18
2018-12-24T07:59:40.852Z,14.27
2018-12-24T08:02:13.224Z,14.16
2018-12-24T08:04:43.822Z,14.23
2018-12-24T08:07:17.019Z,14.44
2018-12-24T08:09:54.297Z,14.16
2018-12-24T08:12:26.776Z,14.17
2018-12-24T08:14:59.908Z,14.24
2018-12-24T08:17:35.236Z,13.89
2018-12-24T08:20:07.724Z,13.97
2018-12-24T08:22:40.273Z,13.87
2018-12-24T08:25:11.151Z,13.89
2018-12-24T08:27:41.965Z,14.13
2018-12-24T08:30:17.716Z,14.28
2018-12-24T08:32:50.398Z,14.10
2018-12-24T08:35:22.367Z,14.10
2018-12-24T08:37:57.601Z,14.41
2018-12-24T08:40:30.826Z,14.47
2018-12-24T08:43:04.745Z,14.28
2018-12-24T08:45:36.796Z,14.41
2018-12-24T08:48:11.507Z,14.59
2018-12-24T08:50:45.126Z,14.37
2018-12-24T08:53:17.360Z,14.45
2018-12-24T08:55:47.713Z,14.32
2018-12-24T08:58:19.161Z,14.53
2018-12-24T09:00:52.371Z,14.41
2018-12-24T09:03:28.349Z,14.18
2018-12-24T09:06:00.095Z,14.25
2018-12-24T09:08:32.455Z,14.30
2018-12-24T09:11:04.462Z,14.23
2018-12-24T09:13:37.336Z,13.77
2018-12-24T09:16:11.836Z,13.96
2018-12-24T09:18:46.451Z,14.26
2018-12-24T09:21:18.713Z,14.43
2018-12-24T09:24:03.387Z,14.17
2018-12-24T09:26:34.017Z,14.31
2018-12-24T09:29:05.397Z,13.93
2018-12-24T09:31:37.459Z,14.31
2018-12-24T09:34:16.157Z,14.19
2018-12-24T09:36:57.641Z,13.86
2018-12-24T09:39:31.494Z,14.02
2018-12-24T09:42:03.953Z,13.51
2018-12-24T09:44:40.420Z,14.21
2018-12-24T09:47:10.929Z,14.31
2018-12-24T09:49:45.818Z,13.65
2018-12-24T09:52:18.852Z,14.10
2018-12-24T09:54:51.944Z,14.17
2018-12-24T09:57:22.987Z,14.15
2018-12-24T09:59:54.891Z,13.96
2018-12-24T10:02:37.704Z,13.72
2018-12-24T10:05:11.868Z,13.56
2018-12-24T10:07:42.559Z,13.51
2018-12-24T10:10:19.593Z,13.52
2018-12-24T10:12:50.942Z,13.10
2018-12-24T10:15:22.121Z,12.99
2018-12-24T10:17:58.699Z,13.43
2018-12-24T10:20:31.993Z,13.62
2018-12-24T10:23:05.706Z,13.71
2018-12-24T10:25:43.479Z,13.63
2018-12-24T10:28:15.843Z,13.09
2018-12-24T10:30:47.827Z,13.19
2018-12-24T10:33:18.639Z,13.45
2018-12-24T10:35:51.175Z,13.71
2018-12-24T10:38:21.892Z,13.76
2018-12-24T10:41:05.983Z,13.54
2018-12-24T10:43:39.661Z,13.40
2018-12-24T10:46:17.693Z,13.23
2018-12-24T10:48:53.008Z,12.90
2018-12-24T10:51:25.457Z,12.52
2018-12-24T10:53:58.913Z,13.40
2018-12-24T10:56:32.865Z,14.48
2018-12-24T10:59:09.531Z,15.70
2018-12-24T11:01:42.099Z,17.41
2018-12-24T11:04:18.000Z,18.90
2018-12-24T11:06:49.503Z,19.69
2018-12-24T11:09:22.046Z,21.40
2018-12-24T11:11:56.103Z,22.47
2018-12-24T11:14:28.085Z,23.58
2018-12-24T11:17:06.420Z,23.90
2018-12-24T11:19:38.499Z,23.15
2018-12-24T11:22:09.952Z,21.99
2018-12-24T11:24:44.402Z,21.11
2018-12-24T11:27:16.542Z,19.96
2018-12-24T11:29:51.146Z,18.99
2018-12-24T11:32:24.355Z,18.32
2018-12-24T11:34:58.399Z,17.70
2018-12-24T11:37:37.331Z,16.50
2018-12-24T11:40:08.551Z,16.39
2018-12-24T11:42:45.693Z,16.18
2018-12-24T11:45:22.391Z,15.55
2018-12-24T11:47:59.631Z,14.91
2018-12-24T11:50:31.609Z,14.97
2018-12-24T11:53:04.263Z,14.70
2018-12-24T11:55:35.535Z,14.89
2018-12-24T11:58:13.466Z,14.13
2018-12-24T12:00:40.416Z,13.50
2018-12-24T12:03:15.559Z,13.10
2018-12-24T12:05:48.460Z,12.61
2018-12-24T12:08:24.808Z,13.45
2018-12-24T12:10:58.091Z,13.56
2018-12-24T12:13:36.009Z,13.60
2018-12-24T12:16:11.450Z,13.70
2018-12-24T12:18:45.511Z,13.58
2018-12-24T12:21:17.222Z,13.56
2018-12-24T12:23:51.454Z,14.10
2018-12-24T12:26:24.195Z,14.18
2018-12-24T12:29:01.281Z,12.97
2018-12-24T12:31:33.383Z,13.28
2018-12-24T12:34:06.264Z,13.83
2018-12-24T12:36:38.251Z,14.68
2018-12-24T12:39:17.514Z,15.74
2018-12-24T12:41:51.550Z,16.37
2018-12-24T12:44:23.156Z,16.79
2018-12-24T12:46:55.224Z,16.88
2018-12-24T12:49:29.120Z,17.31
2018-12-24T12:52:02.974Z,17.52
2018-12-24T12:54:35.978Z,16.71
2018-12-24T12:57:27.012Z,15.94
2018-12-24T13:00:01.116Z,15.76
2018-12-24T13:02:38.652Z,15.24
2018-12-24T13:05:18.194Z,14.77
2018-12-24T13:07:59.069Z,14.65
2018-12-24T13:10:35.587Z,15.02
2018-12-24T13:13:13.394Z,15.17
2018-12-24T13:15:59.550Z,15.05
2018-12-24T13:18:28.434Z,15.16
2018-12-24T13:21:16.596Z,14.74
2018-12-24T13:24:15.587Z,14.58
2018-12-24T13:26:52.588Z,14.57
2018-12-24T13:29:29.857Z,14.02
2018-12-24T13:32:37.724Z,14.40
2018-12-24T13:35:29.332Z,14.46
2018-12-24T13:38:03.951Z,14.59
2018-12-24T13:40:36.537Z,14.02
2018-12-24T13:43:11.977Z,14.17
2018-12-24T13:45:47.792Z,13.94
2018-12-24T13:48:19.634Z,14.09
2018-12-24T13:50:52.643Z,14.35
2018-12-24T13:53:27.066Z,14.01
2018-12-24T13:55:59.479Z,14.10
2018-12-24T13:58:35.458Z,14.00
2018-12-24T14:01:06.571Z,14.25
2018-12-24T14:03:37.157Z,14.31
2018-12-24T14:06:12.868Z,14.26
2018-12-24T14:08:44.755Z,14.32
2018-12-24T14:11:26.071Z,14.41
2018-12-24T14:14:18.147Z,14.40
2018-12-24T14:16:50.729Z,13.86
2018-12-24T14:19:22.263Z,13.97
2018-12-24T14:21:55.130Z,14.13
2018-12-24T14:24:28.080Z,14.24
2018-12-24T14:27:01.757Z,14.34
2018-12-24T14:29:43.055Z,13.96
2018-12-24T14:32:15.924Z,14.07
2018-12-24T14:34:50.324Z,14.41
2018-12-24T14:37:25.263Z,14.25
2018-12-24T14:40:03.501Z,14.28
2018-12-24T14:42:38.279Z,14.02
2018-12-24T14:45:10.605Z,13.74
2018-12-24T14:47:44.893Z,13.92
2018-12-24T14:50:18.499Z,13.64
2018-12-24T14:52:53.722Z,13.87
2018-12-24T14:55:25.669Z,13.89
2018-12-24T14:57:59.789Z,13.87
2018-12-24T15:00:32.808Z,14.02
2018-12-24T15:03:04.874Z,13.87
2018-12-24T15:05:36.567Z,13.65
2018-12-24T15:08:09.831Z,13.86
2018-12-24T15:10:42.675Z,13.59
2018-12-24T15:13:13.484Z,13.74
2018-12-24T15:15:45.481Z,13.85
2018-12-24T15:18:16.988Z,13.95
2018-12-24T15:20:47.724Z,14.04
2018-12-24T15:23:18.854Z,14.07
2018-12-24T15:25:54.112Z,14.09
2018-12-24T15:28:26.276Z,14.08
2018-12-24T15:30:58.781Z,14.02
2018-12-24T15:33:30.225Z,13.63
2018-12-24T15:36:00.532Z,13.10
2018-12-24T15:38:32.728Z,13.54
2018-12-24T15:41:06.720Z,13.67
2018-12-24T15:43:37.657Z,13.59
2018-12-24T15:46:09.416Z,13.64
2018-12-24T15:48:41.087Z,13.49
2018-12-24T15:51:13.673Z,13.32
2018-12-24T15:53:46.619Z,13.48
2018-12-24T15:56:18.216Z,13.59
2018-12-24T15:58:53.355Z,13.59
2018-12-24T16:01:26.714Z,13.59
2018-12-24T16:04:03.489Z,13.63
2018-12-24T16:06:42.052Z,13.63
2018-12-24T16:09:13.883Z,13.63
2018-12-24T16:11:48.002Z,13.67
2018-12-24T16:14:18.979Z,13.71
2018-12-24T16:16:52.025Z,13.73
2018-12-24T16:19:24.027Z,13.71
2018-12-24T16:21:55.059Z,13.65
2018-12-24T16:24:25.785Z,13.59
2018-12-24T16:26:58.644Z,13.57
2018-12-24T16:29:30.309Z,13.57
2018-12-24T16:32:10.309Z,13.60
2018-12-24T16:34:41.453Z,13.58
2018-12-24T16:37:14.841Z,13.58
2018-12-24T16:39:46.092Z,13.57
2018-12-24T16:42:19.405Z,13.55
2018-12-24T16:44:57.797Z,13.57
2018-12-24T16:47:38.058Z,13.55
2018-12-24T16:50:11.995Z,13.54
2018-12-24T16:52:44.123Z,13.30
2018-12-24T16:55:15.382Z,13.42
2018-12-24T16:57:45.814Z,13.40
2018-12-24T17:00:19.331Z,13.44
2018-12-24T17:02:52.928Z,13.37
2018-12-24T17:05:25.878Z,13.37
2018-12-24T17:07:59.994Z,13.35
2018-12-24T17:10:31.403Z,13.26
2018-12-24T17:13:02.378Z,13.23
2018-12-24T17:15:34.761Z,13.12
2018-12-24T17:18:07.390Z,13.08
2018-12-24T17:20:38.516Z,13.06
2018-12-24T17:23:09.193Z,13.12
2018-12-24T17:25:40.831Z,13.04
2018-12-24T17:28:11.774Z,12.93
2018-12-24T17:30:44.545Z,12.98
2018-12-24T17:33:17.218Z,12.94
2018-12-24T17:35:48.401Z,12.84
2018-12-24T17:38:21.325Z,12.88
2018-12-24T17:40:56.612Z,12.93
2018-12-24T17:43:30.182Z,12.95
2018-12-24T17:46:01.084Z,12.96
2018-12-24T17:48:39.536Z,12.99
2018-12-24T17:51:13.553Z,12.88
2018-12-24T17:53:45.857Z,12.86
2018-12-24T17:56:19.485Z,12.85
2018-12-24T17:58:52.620Z,12.87
2018-12-24T18:01:26.446Z,12.88
2018-12-24T18:04:02.001Z,12.88
2018-12-24T18:06:37.423Z,12.77
2018-12-24T18:09:09.108Z,12.78
2018-12-24T18:11:42.583Z,12.79
2018-12-24T18:14:14.433Z,12.74
2018-12-24T18:16:49.584Z,12.70
2018-12-24T18:19:21.883Z,12.72
2018-12-24T18:21:53.222Z,12.61
2018-12-24T18:24:25.770Z,12.59
2018-12-24T18:26:57.908Z,12.64
2018-12-24T18:29:33.966Z,12.46
2018-12-24T18:32:08.703Z,12.59
2018-12-24T18:34:44.060Z,12.58
2018-12-24T18:37:15.493Z,12.62
2018-12-24T18:39:52.168Z,12.65
2018-12-24T18:42:28.876Z,12.59
2018-12-24T18:45:04.089Z,12.43
2018-12-24T18:47:35.776Z,12.39
2018-12-24T18:50:10.897Z,12.48
2018-12-24T18:52:42.170Z,12.47
2018-12-24T18:55:13.141Z,12.39
2018-12-24T18:57:44.184Z,12.36
2018-12-24T19:00:16.283Z,12.34
2018-12-24T19:02:47.529Z,12.40
2018-12-24T19:05:19.590Z,12.42
2018-12-24T19:07:52.700Z,12.32
2018-12-24T19:10:23.058Z,12.36
2018-12-24T19:12:54.510Z,12.25
2018-12-24T19:15:26.780Z,12.26
2018-12-24T19:17:58.729Z,12.20
2018-12-24T19:20:31.337Z,12.14
2018-12-24T19:23:02.047Z,12.11
2018-12-24T19:25:37.950Z,12.09
2018-12-24T19:28:13.669Z,12.09
2018-12-24T19:30:45.024Z,11.99
2018-12-24T19:33:16.931Z,12.01
2018-12-24T19:35:50.888Z,11.96
2018-12-24T19:38:22.903Z,12.07
2018-12-24T19:40:59.039Z,12.02
2018-12-24T19:43:31.776Z,12.06
2018-12-24T19:46:07.609Z,12.02
2018-12-24T19:48:39.901Z,12.01
2018-12-24T19:51:12.202Z,11.79
2018-12-24T19:53:43.411Z,11.79
2018-12-24T19:56:16.135Z,11.90
2018-12-24T19:58:51.447Z,11.88
2018-12-24T20:01:23.494Z,11.83
2018-12-24T20:03:55.965Z,11.86
2018-12-24T20:06:30.164Z,11.83
2018-12-24T20:09:05.094Z,11.77
2018-12-24T20:11:38.249Z,11.75
2018-12-24T20:14:10.690Z,11.78
2018-12-24T20:16:41.175Z,11.72
2018-12-24T20:19:12.797Z,11.50
2018-12-24T20:21:44.538Z,11.35
2018-12-24T20:24:15.945Z,11.16
2018-12-24T20:26:47.507Z,11.29
2018-12-24T20:29:18.315Z,11.20
2018-12-24T20:31:50.362Z,11.20
2018-12-24T20:34:21.962Z,11.13
2018-12-24T20:36:53.864Z,11.30
2018-12-24T20:39:29.452Z,11.29
2018-12-24T20:42:02.585Z,11.00
2018-12-24T20:44:34.693Z,10.91
2018-12-24T20:47:06.553Z,10.84
2018-12-24T20:49:38.209Z,10.67
2018-12-24T20:52:09.951Z,10.66
2018-12-24T20:54:43.451Z,10.96
2018-12-24T20:57:15.657Z,10.77
2018-12-24T20:59:48.731Z,10.64
2018-12-24T21:02:20.196Z,10.74
2018-12-24T21:04:58.296Z,10.73
2018-12-24T21:07:31.643Z,10.37
2018-12-24T21:10:04.370Z,10.18
2018-12-24T21:12:35.741Z,10.06
2018-12-24T21:15:06.534Z,10.13
2018-12-24T21:17:38.317Z,10.13
2018-12-24T21:20:11.500Z,9.98
2018-12-24T21:22:43.023Z,9.99
2018-12-24T21:25:15.870Z,9.82
2018-12-24T21:27:47.134Z,9.92
2018-12-24T21:30:29.009Z,9.71
2018-12-24T21:33:01.368Z,9.74
2018-12-24T21:35:34.619Z,9.47
2018-12-24T21:38:10.209Z,9.22
2018-12-24T21:40:49.200Z,9.37
2018-12-24T21:43:21.820Z,9.56
2018-12-24T21:45:52.381Z,9.79
2018-12-24T21:48:23.860Z,9.89
2018-12-24T21:50:57.509Z,9.96
2018-12-24T21:53:29.593Z,10.15
2018-12-24T21:56:00.848Z,10.04
2018-12-24T21:58:31.586Z,10.09
2018-12-24T22:01:05.909Z,10.43
2018-12-24T22:03:40.283Z,10.43
2018-12-24T22:06:12.797Z,10.37
2018-12-24T22:08:44.009Z,10.39
2018-12-24T22:11:17.765Z,10.27
2018-12-24T22:13:51.246Z,10.29
2018-12-24T22:16:24.399Z,10.32
2018-12-24T22:18:58.453Z,10.64
2018-12-24T22:21:37.381Z,10.64
2018-12-24T22:24:09.314Z,10.60
2018-12-24T22:26:42.656Z,10.62
2018-12-24T22:29:13.845Z,10.50
2018-12-24T22:31:44.435Z,10.69
2018-12-24T22:34:15.955Z,10.57
2018-12-24T22:36:47.207Z,10.95
2018-12-24T22:39:17.632Z,10.98
2018-12-24T22:41:50.187Z,11.07
2018-12-24T22:44:21.051Z,11.01
2018-12-24T22:46:56.233Z,10.97
2018-12-24T22:49:29.606Z,11.11
2018-12-24T22:52:02.551Z,11.21
2018-12-24T22:54:35.647Z,11.04
2018-12-24T22:57:07.635Z,11.04
2018-12-24T22:59:38.883Z,10.88
2018-12-24T23:02:10.643Z,11.05
2018-12-24T23:04:41.487Z,10.90
2018-12-24T23:07:13.977Z,10.74
2018-12-24T23:09:50.429Z,10.84
2018-12-24T23:12:24.236Z,10.90
2018-12-24T23:14:56.411Z,10.62
2018-12-24T23:17:34.964Z,10.36
2018-12-24T23:20:05.332Z,10.16
2018-12-24T23:22:38.417Z,10.32
2018-12-24T23:25:09.585Z,10.55
2018-12-24T23:27:41.054Z,10.60
2018-12-24T23:30:12.213Z,10.13
2018-12-24T23:32:42.505Z,10.19
2018-12-24T23:35:13.155Z,9.99
2018-12-24T23:37:44.120Z,10.41
2018-12-24T23:40:15.410Z,10.00
2018-12-24T23:42:46.184Z,10.21
2018-12-24T23:45:18.253Z,9.85
2018-12-24T23:47:49.690Z,9.83
2018-12-24T23:50:21.366Z,10.36
2018-12-24T23:52:52.981Z,10.22
2018-12-24T23:55:25.417Z,10.39
2018-12-24T23:57:57.468Z,10.52
